sensor_id;sensor_type;location;lat;lon;timestamp;pressure;altitude;pressure_sealevel;temperature;humidity
66880;BME280;72009;51.392;10.234;2023-09-08T00:00:06;98637.91;;;15.26;100.00
66880;BME280;72009;51.392;10.234;2023-09-08T00:00:26;98633.50;;;15.25;100.00
66880;BME280;72009;51.392;10.234;2023-09-08T00:00:47;98636.59;;;15.24;100.00
66880;BME280;72009;51.392;10.234;2023-09-08T00:01:07;98642.97;;;15.24;100.00
66880;BME280;72009;51.392;10.234;2023-09-08T00:01:28;98639.69;;;15.22;100.00
66880;BME280;72009;51.392;10.234;2023-09-08T00:01:48;98636.91;;;15.22;100.00
66880;BME280;72009;51.392;10.234;2023-09-08T00:02:08;98634.16;;;15.22;100.00
66880;BME280;72009;51.392;10.234;2023-09-08T00:02:29;98634.47;;;15.21;100.00
66880;BME280;72009;51.392;10.234;2023-09-08T00:03:13;98641.19;;;15.20;100.00
66880;BME280;72009;51.392;10.234;2023-09-08T00:03:33;98637.09;;;15.17;100.00
66880;BME280;72009;51.392;10.234;2023-09-08T00:03:54;98643.78;;;15.16;100.00
66880;BME280;72009;51.392;10.234;2023-09-08T00:04:14;98639.38;;;15.15;100.00
66880;BME280;72009;51.392;10.234;2023-09-08T00:04:34;98644.09;;;15.14;100.00
66880;BME280;72009;51.392;10.234;2023-09-08T00:04:54;98632.22;;;15.14;100.00
66880;BME280;72009;51.392;10.234;2023-09-08T00:05:15;98635.00;;;15.14;100.00
66880;BME280;72009;51.392;10.234;2023-09-08T00:05:35;98631.38;;;15.13;100.00
66880;BME280;72009;51.392;10.234;2023-09-08T00:05:55;98642.78;;;15.12;100.00
66880;BME280;72009;51.392;10.234;2023-09-08T00:06:16;98632.88;;;15.11;100.00
66880;BME280;72009;51.392;10.234;2023-09-08T00:06:36;98636.78;;;15.10;100.00
66880;BME280;72009;51.392;10.234;2023-09-08T00:06:56;98637.59;;;15.10;100.00
66880;BME280;72009;51.392;10.234;2023-09-08T00:07:17;98637.91;;;15.09;100.00
66880;BME280;72009;51.392;10.234;2023-09-08T00:07:37;98635.13;;;15.09;100.00
66880;BME280;72009;51.392;10.234;2023-09-08T00:07:57;98637.91;;;15.09;100.00
66880;BME280;72009;51.392;10.234;2023-09-08T00:08:18;98637.91;;;15.09;100.00
66880;BME280;72009;51.392;10.234;2023-09-08T00:08:38;98635.47;;;15.07;100.00
66880;BME280;72009;51.392;10.234;2023-09-08T00:08:58;98632.69;;;15.07;100.00
66880;BME280;72009;51.392;10.234;2023-09-08T00:09:19;98638.25;;;15.07;100.00
66880;BME280;72009;51.392;10.234;2023-09-08T00:09:39;98635.13;;;15.09;100.00
66880;BME280;72009;51.392;10.234;2023-09-08T00:09:59;98635.13;;;15.09;100.00
66880;BME280;72009;51.392;10.234;2023-09-08T00:10:19;98639.88;;;15.08;100.00
66880;BME280;72009;51.392;10.234;2023-09-08T00:10:40;98636.78;;;15.10;100.00
66880;BME280;72009;51.392;10.234;2023-09-08T00:11:00;98636.78;;;15.10;100.00
66880;BME280;72009;51.392;10.234;2023-09-08T00:11:20;98642.31;;;15.10;100.00
66880;BME280;72009;51.392;10.234;2023-09-08T00:11:41;98634.81;;;15.10;100.00
66880;BME280;72009;51.392;10.234;2023-09-08T00:12:01;98634.47;;;15.12;100.00
66880;BME280;72009;51.392;10.234;2023-09-08T00:12:21;98634.47;;;15.12;100.00
66880;BME280;72009;51.392;10.234;2023-09-08T00:12:42;98638.88;;;15.13;100.00
66880;BME280;72009;51.392;10.234;2023-09-08T00:13:02;98633.69;;;15.11;100.00
66880;BME280;72009;51.392;10.234;2023-09-08T00:13:22;98637.25;;;15.12;100.00
66880;BME280;72009;51.392;10.234;2023-09-08T00:13:43;98636.94;;;15.13;100.00
66880;BME280;72009;51.392;10.234;2023-09-08T00:14:03;98636.13;;;15.13;100.00
66880;BME280;72009;51.392;10.234;2023-09-08T00:14:23;98640.84;;;15.12;100.00
66880;BME280;72009;51.392;10.234;2023-09-08T00:14:43;98637.25;;;15.12;100.00
66880;BME280;72009;51.392;10.234;2023-09-08T00:15:05;98640.03;;;15.12;100.00
66880;BME280;72009;51.392;10.234;2023-09-08T00:15:26;98636.44;;;15.11;100.00
66880;BME280;72009;51.392;10.234;2023-09-08T00:15:46;98632.88;;;15.11;100.00
66880;BME280;72009;51.392;10.234;2023-09-08T00:16:06;98643.97;;;15.11;100.00
66880;BME280;72009;51.392;10.234;2023-09-08T00:16:27;98636.78;;;15.10;100.00
66880;BME280;72009;51.392;10.234;2023-09-08T00:16:47;98640.69;;;15.09;100.00
66880;BME280;72009;51.392;10.234;2023-09-08T00:17:07;98637.91;;;15.09;100.00
66880;BME280;72009;51.392;10.234;2023-09-08T00:17:28;98634.34;;;15.08;100.00
66880;BME280;72009;51.392;10.234;2023-09-08T00:17:48;98638.25;;;15.07;100.00
66880;BME280;72009;51.392;10.234;2023-09-08T00:18:08;98633.53;;;15.08;100.00
66880;BME280;72009;51.392;10.234;2023-09-08T00:18:28;98634.66;;;15.07;100.00
66880;BME280;72009;51.392;10.234;2023-09-08T00:18:49;98639.06;;;15.08;100.00
66880;BME280;72009;51.392;10.234;2023-09-08T00:19:10;98633.84;;;15.06;100.00
66880;BME280;72009;51.392;10.234;2023-09-08T00:19:30;98626.34;;;15.07;100.00
66880;BME280;72009;51.392;10.234;2023-09-08T00:19:51;98631.91;;;15.07;100.00
66880;BME280;72009;51.392;10.234;2023-09-08T00:20:11;98641.84;;;15.08;100.00
66880;BME280;72009;51.392;10.234;2023-09-08T00:20:31;98642.66;;;15.08;100.00
66880;BME280;72009;51.392;10.234;2023-09-08T00:20:52;98637.09;;;15.08;100.00
66880;BME280;72009;51.392;10.234;2023-09-08T00:21:12;98635.13;;;15.09;100.00
66880;BME280;72009;51.392;10.234;2023-09-08T00:21:32;98638.25;;;15.07;100.00
66880;BME280;72009;51.392;10.234;2023-09-08T00:21:53;98636.31;;;15.08;100.00
66880;BME280;72009;51.392;10.234;2023-09-08T00:22:13;98634.66;;;15.07;100.00
66880;BME280;72009;51.392;10.234;2023-09-08T00:22:33;98638.25;;;15.07;100.00
66880;BME280;72009;51.392;10.234;2023-09-08T00:22:53;98635.13;;;15.09;100.00
66880;BME280;72009;51.392;10.234;2023-09-08T00:23:14;98633.53;;;15.08;100.00
66880;BME280;72009;51.392;10.234;2023-09-08T00:23:34;98631.56;;;15.08;100.00
66880;BME280;72009;51.392;10.234;2023-09-08T00:23:54;98631.91;;;15.07;100.00
66880;BME280;72009;51.392;10.234;2023-09-08T00:24:15;98631.91;;;15.07;100.00
66880;BME280;72009;51.392;10.234;2023-09-08T00:24:35;98629.94;;;15.07;100.00
66880;BME280;72009;51.392;10.234;2023-09-08T00:24:56;98630.25;;;15.06;100.00
66880;BME280;72009;51.392;10.234;2023-09-08T00:25:16;98637.44;;;15.07;100.00
66880;BME280;72009;51.392;10.234;2023-09-08T00:25:36;98635.00;;;15.05;100.00
66880;BME280;72009;51.392;10.234;2023-09-08T00:25:57;98631.09;;;15.06;100.00
66880;BME280;72009;51.392;10.234;2023-09-08T00:26:17;98631.09;;;15.06;100.00
66880;BME280;72009;51.392;10.234;2023-09-08T00:26:37;98634.34;;;15.08;100.00
66880;BME280;72009;51.392;10.234;2023-09-08T00:26:58;98633.53;;;15.08;100.00
66880;BME280;72009;51.392;10.234;2023-09-08T00:27:18;98628.00;;;15.08;100.00
66880;BME280;72009;51.392;10.234;2023-09-08T00:27:38;98628.78;;;15.08;100.00
66880;BME280;72009;51.392;10.234;2023-09-08T00:28:23;98632.38;;;15.09;100.00
66880;BME280;72009;51.392;10.234;2023-09-08T00:28:43;98638.75;;;15.09;100.00
66880;BME280;72009;51.392;10.234;2023-09-08T00:29:03;98638.41;;;15.11;100.00
66880;BME280;72009;51.392;10.234;2023-09-08T00:29:24;98634.00;;;15.10;100.00
66880;BME280;72009;51.392;10.234;2023-09-08T00:29:44;98634.00;;;15.10;100.00
66880;BME280;72009;51.392;10.234;2023-09-08T00:30:05;98636.78;;;15.10;100.00
66880;BME280;72009;51.392;10.234;2023-09-08T00:30:26;98640.34;;;15.10;100.00
66880;BME280;72009;51.392;10.234;2023-09-08T00:31:09;98635.66;;;15.11;100.00
66880;BME280;72009;51.392;10.234;2023-09-08T00:31:29;98629.28;;;15.10;100.00
66880;BME280;72009;51.392;10.234;2023-09-08T00:32:49;98630.09;;;15.11;100.00
66880;BME280;72009;51.392;10.234;2023-09-08T00:33:32;98622.94;;;15.10;100.00
66880;BME280;72009;51.392;10.234;2023-09-08T00:33:52;98625.69;;;15.10;100.00
66880;BME280;72009;51.392;10.234;2023-09-08T00:34:13;98635.13;;;15.09;100.00
66880;BME280;72009;51.392;10.234;2023-09-08T00:34:33;98624.38;;;15.07;100.00
66880;BME280;72009;51.392;10.234;2023-09-08T00:34:53;98620.81;;;15.07;100.00
66880;BME280;72009;51.392;10.234;2023-09-08T00:35:13;98624.72;;;15.06;100.00
66880;BME280;72009;51.392;10.234;2023-09-08T00:35:35;98630.25;;;15.06;100.00
66880;BME280;72009;51.392;10.234;2023-09-08T00:35:55;98631.38;;;15.05;100.00
66880;BME280;72009;51.392;10.234;2023-09-08T00:36:15;98629.78;;;15.04;100.00
66880;BME280;72009;51.392;10.234;2023-09-08T00:36:36;98625.03;;;15.04;100.00
66880;BME280;72009;51.392;10.234;2023-09-08T00:36:56;98626.19;;;15.03;100.00
66880;BME280;72009;51.392;10.234;2023-09-08T00:37:17;98619.84;;;15.03;100.00
66880;BME280;72009;51.392;10.234;2023-09-08T00:37:37;98626.19;;;15.03;100.00
66880;BME280;72009;51.392;10.234;2023-09-08T00:37:57;98624.25;;;15.04;100.00
66880;BME280;72009;51.392;10.234;2023-09-08T00:38:17;98624.25;;;15.04;100.00
66880;BME280;72009;51.392;10.234;2023-09-08T00:38:38;98623.41;;;15.03;100.00
66880;BME280;72009;51.392;10.234;2023-09-08T00:38:58;98630.59;;;15.04;100.00
66880;BME280;72009;51.392;10.234;2023-09-08T00:39:19;98619.50;;;15.04;100.00
66880;BME280;72009;51.392;10.234;2023-09-08T00:39:39;98624.25;;;15.04;100.00
66880;BME280;72009;51.392;10.234;2023-09-08T00:39:59;98627.00;;;15.04;100.00
66880;BME280;72009;51.392;10.234;2023-09-08T00:40:19;98631.72;;;15.03;100.00
66880;BME280;72009;51.392;10.234;2023-09-08T00:40:40;98627.81;;;15.04;100.00
66880;BME280;72009;51.392;10.234;2023-09-08T00:41:00;98632.56;;;15.04;100.00
66880;BME280;72009;51.392;10.234;2023-09-08T00:41:20;98633.34;;;15.04;100.00
66880;BME280;72009;51.392;10.234;2023-09-08T00:41:41;98636.44;;;15.03;100.00
66880;BME280;72009;51.392;10.234;2023-09-08T00:42:01;98630.44;;;15.01;100.00
66880;BME280;72009;51.392;10.234;2023-09-08T00:42:21;98630.09;;;15.02;100.00
66880;BME280;72009;51.392;10.234;2023-09-08T00:42:42;98624.91;;;15.01;100.00
66880;BME280;72009;51.392;10.234;2023-09-08T00:43:02;98631.56;;;15.00;100.00
66880;BME280;72009;51.392;10.234;2023-09-08T00:43:22;98631.25;;;15.01;100.00
66880;BME280;72009;51.392;10.234;2023-09-08T00:43:43;98618.03;;;14.98;100.00
66880;BME280;72009;51.392;10.234;2023-09-08T00:44:03;98633.19;;;15.01;100.00
66880;BME280;72009;51.392;10.234;2023-09-08T00:44:24;98627.66;;;15.01;100.00
66880;BME280;72009;51.392;10.234;2023-09-08T00:44:44;98622.44;;;14.99;100.00
66880;BME280;72009;51.392;10.234;2023-09-08T00:45:42;98630.44;;;15.01;100.00
66880;BME280;72009;51.392;10.234;2023-09-08T00:46:03;98628.78;;;15.00;100.00
66880;BME280;72009;51.392;10.234;2023-09-08T00:46:23;98631.56;;;15.00;100.00
66880;BME280;72009;51.392;10.234;2023-09-08T00:46:44;98623.25;;;15.00;100.00
66880;BME280;72009;51.392;10.234;2023-09-08T00:47:04;98627.16;;;14.98;100.00
66880;BME280;72009;51.392;10.234;2023-09-08T00:47:25;98627.16;;;14.98;100.00
66880;BME280;72009;51.392;10.234;2023-09-08T00:47:45;98620.00;;;14.97;100.00
66880;BME280;72009;51.392;10.234;2023-09-08T00:48:06;98629.94;;;14.98;100.00
66880;BME280;72009;51.392;10.234;2023-09-08T00:48:27;98625.88;;;14.96;100.00
66880;BME280;72009;51.392;10.234;2023-09-08T00:48:47;98629.44;;;14.96;100.00
66880;BME280;72009;51.392;10.234;2023-09-08T00:49:08;98625.56;;;14.97;100.00
66880;BME280;72009;51.392;10.234;2023-09-08T00:49:28;98622.28;;;14.95;100.00
66880;BME280;72009;51.392;10.234;2023-09-08T00:49:48;98631.41;;;14.96;100.00
66880;BME280;72009;51.392;10.234;2023-09-08T00:50:09;98629.78;;;14.95;100.00
66880;BME280;72009;51.392;10.234;2023-09-08T00:50:30;98630.09;;;14.93;100.00
66880;BME280;72009;51.392;10.234;2023-09-08T00:50:50;98624.56;;;14.93;100.00
66880;BME280;72009;51.392;10.234;2023-09-08T00:51:11;98626.50;;;14.93;100.00
66880;BME280;72009;51.392;10.234;2023-09-08T00:51:31;98627.34;;;14.93;100.00
66880;BME280;72009;51.392;10.234;2023-09-08T00:52:20;98624.06;;;14.91;100.00
66880;BME280;72009;51.392;10.234;2023-09-08T00:52:40;98626.03;;;14.91;100.00
66880;BME280;72009;51.392;10.234;2023-09-08T00:53:01;98622.44;;;14.90;100.00
66880;BME280;72009;51.392;10.234;2023-09-08T00:53:21;98627.16;;;14.90;100.00
66880;BME280;72009;51.392;10.234;2023-09-08T00:53:42;98620.00;;;14.89;100.00
66880;BME280;72009;51.392;10.234;2023-09-08T00:54:03;98623.91;;;14.88;100.00
66880;BME280;72009;51.392;10.234;2023-09-08T00:54:24;98622.28;;;14.87;100.00
66880;BME280;72009;51.392;10.234;2023-09-08T00:54:44;98622.59;;;14.85;100.00
66880;BME280;72009;51.392;10.234;2023-09-08T00:55:05;98616.25;;;14.85;100.00
66880;BME280;72009;51.392;10.234;2023-09-08T00:55:25;98621.78;;;14.85;100.00
66880;BME280;72009;51.392;10.234;2023-09-08T00:55:46;98622.13;;;14.83;100.00
66880;BME280;72009;51.392;10.234;2023-09-08T00:56:09;98624.09;;;14.83;100.00
66880;BME280;72009;51.392;10.234;2023-09-08T00:56:30;98618.88;;;14.81;100.00
66880;BME280;72009;51.392;10.234;2023-09-08T00:56:55;98625.22;;;14.82;100.00
66880;BME280;72009;51.392;10.234;2023-09-08T00:57:16;98626.03;;;14.82;100.00
66880;BME280;72009;51.392;10.234;2023-09-08T00:57:37;98621.66;;;14.81;100.00
66880;BME280;72009;51.392;10.234;2023-09-08T00:57:58;98619.69;;;14.82;100.00
66880;BME280;72009;51.392;10.234;2023-09-08T00:58:19;98621.66;;;14.81;100.00
66880;BME280;72009;51.392;10.234;2023-09-08T00:58:39;98624.41;;;14.81;100.00
66880;BME280;72009;51.392;10.234;2023-09-08T00:59:00;98624.41;;;14.81;100.00
66880;BME280;72009;51.392;10.234;2023-09-08T00:59:20;98628.78;;;14.82;100.00
66880;BME280;72009;51.392;10.234;2023-09-08T00:59:41;98629.13;;;14.80;100.00
66880;BME280;72009;51.392;10.234;2023-09-08T01:00:02;98626.34;;;14.80;100.00
66880;BME280;72009;51.392;10.234;2023-09-08T01:00:22;98626.34;;;14.80;100.00
66880;BME280;72009;51.392;10.234;2023-09-08T01:00:42;98624.72;;;14.79;100.00
66880;BME280;72009;51.392;10.234;2023-09-08T01:01:03;98631.88;;;14.80;100.00
66880;BME280;72009;51.392;10.234;2023-09-08T01:01:23;98630.25;;;14.79;100.00
66880;BME280;72009;51.392;10.234;2023-09-08T01:01:43;98625.03;;;14.78;100.00
66880;BME280;72009;51.392;10.234;2023-09-08T01:02:05;98631.69;;;14.77;100.00
66880;BME280;72009;51.392;10.234;2023-09-08T01:02:25;98621.44;;;14.77;100.00
66880;BME280;72009;51.392;10.234;2023-09-08T01:02:45;98620.63;;;14.77;100.00
66880;BME280;72009;51.392;10.234;2023-09-08T01:03:06;98630.88;;;14.76;100.00
66880;BME280;72009;51.392;10.234;2023-09-08T01:03:26;98626.50;;;14.75;100.00
66880;BME280;72009;51.392;10.234;2023-09-08T01:03:46;98626.50;;;14.75;100.00
66880;BME280;72009;51.392;10.234;2023-09-08T01:04:06;98626.81;;;14.74;100.00
66880;BME280;72009;51.392;10.234;2023-09-08T01:04:27;98630.41;;;14.74;100.00
66880;BME280;72009;51.392;10.234;2023-09-08T01:04:49;98624.06;;;14.74;100.00
66880;BME280;72009;51.392;10.234;2023-09-08T01:05:10;98624.38;;;14.72;100.00
66880;BME280;72009;51.392;10.234;2023-09-08T01:05:30;98631.03;;;14.71;100.00
66880;BME280;72009;51.392;10.234;2023-09-08T01:05:52;98628.28;;;14.71;100.00
66880;BME280;72009;51.392;10.234;2023-09-08T01:06:13;98631.03;;;14.71;100.00
66880;BME280;72009;51.392;10.234;2023-09-08T01:06:34;98629.41;;;14.70;100.00
66880;BME280;72009;51.392;10.234;2023-09-08T01:06:56;98625.03;;;14.69;100.00
66880;BME280;72009;51.392;10.234;2023-09-08T01:07:19;98623.88;;;14.70;100.00
66880;BME280;72009;51.392;10.234;2023-09-08T01:08:09;98627.78;;;14.69;100.00
66880;BME280;72009;51.392;10.234;2023-09-08T01:08:30;98631.38;;;14.70;100.00
66880;BME280;72009;51.392;10.234;2023-09-08T01:08:52;98620.28;;;14.70;100.00
66880;BME280;72009;51.392;10.234;2023-09-08T01:09:12;98626.97;;;14.69;100.00
66880;BME280;72009;51.392;10.234;2023-09-08T01:09:35;98624.19;;;14.69;100.00
66880;BME280;72009;51.392;10.234;2023-09-08T01:09:56;98624.19;;;14.69;100.00
66880;BME280;72009;51.392;10.234;2023-09-08T01:10:17;98618.97;;;14.67;100.00
66880;BME280;72009;51.392;10.234;2023-09-08T01:10:38;98626.16;;;14.68;100.00
66880;BME280;72009;51.392;10.234;2023-09-08T01:10:59;98624.53;;;14.67;100.00
66880;BME280;72009;51.392;10.234;2023-09-08T01:11:20;98626.47;;;14.67;100.00
66880;BME280;72009;51.392;10.234;2023-09-08T01:11:41;98628.09;;;14.68;100.00
66880;BME280;72009;51.392;10.234;2023-09-08T01:12:06;98626.97;;;14.69;100.00
66880;BME280;72009;51.392;10.234;2023-09-08T01:12:27;98625.03;;;14.69;100.00
66880;BME280;72009;51.392;10.234;2023-09-08T01:12:47;98628.59;;;14.70;100.00
66880;BME280;72009;51.392;10.234;2023-09-08T01:13:08;98629.06;;;14.72;100.00
66880;BME280;72009;51.392;10.234;2023-09-08T01:13:29;98631.03;;;14.71;100.00
66880;BME280;72009;51.392;10.234;2023-09-08T01:13:49;98626.31;;;14.72;100.00
66880;BME280;72009;51.392;10.234;2023-09-08T01:14:12;98628.28;;;14.71;100.00
66880;BME280;72009;51.392;10.234;2023-09-08T01:14:32;98629.91;;;14.72;100.00
66880;BME280;72009;51.392;10.234;2023-09-08T01:14:53;98624.38;;;14.72;100.00
66880;BME280;72009;51.392;10.234;2023-09-08T01:15:13;98632.69;;;14.72;100.00
66880;BME280;72009;51.392;10.234;2023-09-08T01:15:33;98623.22;;;14.73;100.00
66880;BME280;72009;51.392;10.234;2023-09-08T01:16:16;98626.31;;;14.72;100.00
66880;BME280;72009;51.392;10.234;2023-09-08T01:16:36;98624.06;;;14.74;100.00
66880;BME280;72009;51.392;10.234;2023-09-08T01:16:57;98625.97;;;14.73;100.00
66880;BME280;72009;51.392;10.234;2023-09-08T01:17:17;98627.94;;;14.73;100.00
66880;BME280;72009;51.392;10.234;2023-09-08T01:17:37;98627.16;;;14.72;100.00
66880;BME280;72009;51.392;10.234;2023-09-08T01:17:57;98630.25;;;14.71;100.00
66880;BME280;72009;51.392;10.234;2023-09-08T01:18:18;98630.56;;;14.69;100.00
66880;BME280;72009;51.392;10.234;2023-09-08T01:18:38;98633.34;;;14.69;100.00
66880;BME280;72009;51.392;10.234;2023-09-08T01:18:59;98626.97;;;14.69;100.00
66880;BME280;72009;51.392;10.234;2023-09-08T01:19:20;98622.56;;;14.68;100.00
66880;BME280;72009;51.392;10.234;2023-09-08T01:19:44;98624.84;;;14.66;100.00
66880;BME280;72009;51.392;10.234;2023-09-08T01:23:21;98624.03;;;14.56;100.00
66880;BME280;72009;51.392;10.234;2023-09-08T01:23:28;98627.28;;;14.58;100.00
66880;BME280;72009;51.392;10.234;2023-09-08T01:25:18;98623.03;;;14.52;100.00
66880;BME280;72009;51.392;10.234;2023-09-08T01:26:08;98622.56;;;14.50;100.00
66880;BME280;72009;51.392;10.234;2023-09-08T01:26:36;98630.34;;;14.48;100.00
66880;BME280;72009;51.392;10.234;2023-09-08T01:27:01;98623.53;;;14.45;100.00
66880;BME280;72009;51.392;10.234;2023-09-08T01:27:24;98625.47;;;14.45;100.00
66880;BME280;72009;51.392;10.234;2023-09-08T01:27:48;98627.91;;;14.46;100.00
66880;BME280;72009;51.392;10.234;2023-09-08T01:28:12;98630.19;;;14.44;100.00
66880;BME280;72009;51.392;10.234;2023-09-08T01:28:33;98618.28;;;14.44;100.00
66880;BME280;72009;51.392;10.234;2023-09-08T01:28:55;98627.44;;;14.44;100.00
66880;BME280;72009;51.392;10.234;2023-09-08T01:29:19;98616.69;;;14.43;100.00
66880;BME280;72009;51.392;10.234;2023-09-08T01:29:42;98618.63;;;14.42;100.00
66880;BME280;72009;51.392;10.234;2023-09-08T01:30:05;98626.91;;;14.42;100.00
66880;BME280;72009;51.392;10.234;2023-09-08T01:30:28;98626.13;;;14.42;100.00
66880;BME280;72009;51.392;10.234;2023-09-08T01:30:51;98622.22;;;14.43;100.00
66880;BME280;72009;51.392;10.234;2023-09-08T01:31:13;98615.03;;;14.42;100.00
66880;BME280;72009;51.392;10.234;2023-09-08T01:31:33;98617.00;;;14.41;100.00
66880;BME280;72009;51.392;10.234;2023-09-08T01:31:54;98616.16;;;14.41;100.00
66880;BME280;72009;51.392;10.234;2023-09-08T01:32:16;98618.94;;;14.41;100.00
66880;BME280;72009;51.392;10.234;2023-09-08T01:32:37;98615.03;;;14.42;100.00
66880;BME280;72009;51.392;10.234;2023-09-08T01:32:57;98620.56;;;14.42;100.00
66880;BME280;72009;51.392;10.234;2023-09-08T01:33:18;98618.63;;;14.42;100.00
66880;BME280;72009;51.392;10.234;2023-09-08T01:33:41;98625.00;;;14.43;100.00
66880;BME280;72009;51.392;10.234;2023-09-08T01:34:02;98609.19;;;14.43;100.00
66880;BME280;72009;51.392;10.234;2023-09-08T01:34:23;98615.03;;;14.42;100.00
66880;BME280;72009;51.392;10.234;2023-09-08T01:34:43;98621.38;;;14.42;100.00
66880;BME280;72009;51.392;10.234;2023-09-08T01:35:04;98618.63;;;14.42;100.00
66880;BME280;72009;51.392;10.234;2023-09-08T01:35:25;98617.50;;;14.43;100.00
66880;BME280;72009;51.392;10.234;2023-09-08T01:35:46;98623.81;;;14.44;100.00
66880;BME280;72009;51.392;10.234;2023-09-08T01:36:07;98620.75;;;14.45;100.00
66880;BME280;72009;51.392;10.234;2023-09-08T01:36:28;98620.75;;;14.45;100.00
66880;BME280;72009;51.392;10.234;2023-09-08T01:36:49;98611.63;;;14.45;100.00
66880;BME280;72009;51.392;10.234;2023-09-08T01:37:09;98618.00;;;14.45;100.00
66880;BME280;72009;51.392;10.234;2023-09-08T01:37:29;98620.75;;;14.45;100.00
66880;BME280;72009;51.392;10.234;2023-09-08T01:37:50;98611.31;;;14.46;100.00
66880;BME280;72009;51.392;10.234;2023-09-08T01:38:10;98617.66;;;14.47;100.00
66880;BME280;72009;51.392;10.234;2023-09-08T01:38:31;98625.13;;;14.46;100.00
66880;BME280;72009;51.392;10.234;2023-09-08T01:38:51;98616.84;;;14.46;100.00
66880;BME280;72009;51.392;10.234;2023-09-08T01:39:11;98622.06;;;14.48;100.00
66880;BME280;72009;51.392;10.234;2023-09-08T01:39:31;98624.81;;;14.48;100.00
66880;BME280;72009;51.392;10.234;2023-09-08T01:39:52;98613.75;;;14.48;100.00
66880;BME280;72009;51.392;10.234;2023-09-08T01:40:13;98616.50;;;14.48;100.00
66880;BME280;72009;51.392;10.234;2023-09-08T01:40:33;98621.25;;;14.48;100.00
66880;BME280;72009;51.392;10.234;2023-09-08T01:40:54;98620.44;;;14.47;100.00
66880;BME280;72009;51.392;10.234;2023-09-08T01:41:14;98627.59;;;14.48;100.00
66880;BME280;72009;51.392;10.234;2023-09-08T01:41:34;98622.06;;;14.48;100.00
66880;BME280;72009;51.392;10.234;2023-09-08T01:41:54;98623.22;;;14.47;100.00
66880;BME280;72009;51.392;10.234;2023-09-08T01:42:15;98621.25;;;14.48;100.00
66880;BME280;72009;51.392;10.234;2023-09-08T01:42:35;98621.25;;;14.48;100.00
66880;BME280;72009;51.392;10.234;2023-09-08T01:42:56;98616.50;;;14.48;100.00
66880;BME280;72009;51.392;10.234;2023-09-08T01:43:16;98612.94;;;14.48;100.00
66880;BME280;72009;51.392;10.234;2023-09-08T01:43:36;98620.44;;;14.47;100.00
66880;BME280;72009;51.392;10.234;2023-09-08T01:43:57;98610.50;;;14.46;100.00
66880;BME280;72009;51.392;10.234;2023-09-08T01:44:17;98620.44;;;14.47;100.00
66880;BME280;72009;51.392;10.234;2023-09-08T01:45:00;98618.00;;;14.45;100.00
66880;BME280;72009;51.392;10.234;2023-09-08T01:45:43;98619.44;;;14.43;100.00
66880;BME280;72009;51.392;10.234;2023-09-08T01:46:03;98613.09;;;14.42;100.00
66880;BME280;72009;51.392;10.234;2023-09-08T01:46:23;98615.84;;;14.42;100.00
66880;BME280;72009;51.392;10.234;2023-09-08T01:46:43;98617.00;;;14.41;100.00
66880;BME280;72009;51.392;10.234;2023-09-08T01:47:04;98618.94;;;14.41;100.00
66880;BME280;72009;51.392;10.234;2023-09-08T01:47:24;98614.25;;;14.41;100.00
66880;BME280;72009;51.392;10.234;2023-09-08T01:47:44;98612.59;;;14.40;100.00
66880;BME280;72009;51.392;10.234;2023-09-08T01:48:05;98618.13;;;14.40;100.00
66880;BME280;72009;51.392;10.234;2023-09-08T01:48:25;98611.81;;;14.40;100.00
66880;BME280;72009;51.392;10.234;2023-09-08T01:48:45;98612.59;;;14.40;100.00
66880;BME280;72009;51.392;10.234;2023-09-08T01:49:06;98616.50;;;14.39;100.00
66880;BME280;72009;51.392;10.234;2023-09-08T01:49:26;98610.97;;;14.39;100.00
66880;BME280;72009;51.392;10.234;2023-09-08T01:49:46;98609.03;;;14.40;100.00
66880;BME280;72009;51.392;10.234;2023-09-08T01:50:07;98623.66;;;14.40;100.00
66880;BME280;72009;51.392;10.234;2023-09-08T01:50:27;98617.34;;;14.40;100.00
66880;BME280;72009;51.392;10.234;2023-09-08T01:50:48;98618.13;;;14.40;100.00
66880;BME280;72009;51.392;10.234;2023-09-08T01:51:08;98615.69;;;14.39;100.00
66880;BME280;72009;51.392;10.234;2023-09-08T01:51:28;98607.41;;;14.39;100.00
66880;BME280;72009;51.392;10.234;2023-09-08T01:51:48;98613.72;;;14.39;100.00
66880;BME280;72009;51.392;10.234;2023-09-08T01:52:09;98610.16;;;14.39;100.00
66880;BME280;72009;51.392;10.234;2023-09-08T01:52:29;98610.47;;;14.37;100.00
66880;BME280;72009;51.392;10.234;2023-09-08T01:52:50;98611.59;;;14.36;100.00
66880;BME280;72009;51.392;10.234;2023-09-08T01:53:10;98609.16;;;14.35;100.00
66880;BME280;72009;51.392;10.234;2023-09-08T01:53:30;98610.00;;;14.35;100.00
66880;BME280;72009;51.392;10.234;2023-09-08T01:53:51;98605.59;;;14.34;100.00
66880;BME280;72009;51.392;10.234;2023-09-08T01:54:11;98608.69;;;14.33;100.00
66880;BME280;72009;51.392;10.234;2023-09-08T01:54:31;98610.63;;;14.32;100.00
66880;BME280;72009;51.392;10.234;2023-09-08T01:54:51;98607.06;;;14.32;100.00
66880;BME280;72009;51.392;10.234;2023-09-08T01:55:12;98609.34;;;14.30;100.00
66880;BME280;72009;51.392;10.234;2023-09-08T01:55:32;98613.22;;;14.28;100.00
66880;BME280;72009;51.392;10.234;2023-09-08T01:55:52;98607.69;;;14.28;100.00
66880;BME280;72009;51.392;10.234;2023-09-08T01:56:13;98607.69;;;14.28;100.00
66880;BME280;72009;51.392;10.234;2023-09-08T01:56:33;98606.91;;;14.28;100.00
66880;BME280;72009;51.392;10.234;2023-09-08T01:56:53;98618.75;;;14.28;100.00